x

Sentry Shoal (46131) Wave Buoy

4:00 - Mon 26th Jan 2015 All times are PST. -8 hours from GMT.

  • Sig Wave height 2.6ft
  • Peak Period 3s
  • Wind
    22mph, 25mph gusts
  • Sea Temp 47°f
  • Aire Temp 50°f
  • Sea Pressure 1010.8mb
  • Sentry Shoal
  • Sentry Shoal

More Historic Weather Station data

Upgrade to MSW Pro to gain access to the past 30 days of data for over 8000 Wavebouys and Weather Stations around the globe.

Join Pro

Comparision Forecast

View Surf forecast
   
lun 01/26 4:00 2.5ft 3s 22 25 mph 1010.8mb 47f 50f
3:00 2.5ft 3s 18 20 mph 1011mb 47f 48f
2:00 1.6ft 3s 20 25 mph 1010.5mb 47f 46f
1:00 1.3ft 2s 16 18 mph 1011.1mb 47f 47f
12:00 1ft 2s 16 18 mph 1011.5mb 47f 47f
11:00 0.3ft 7s 11 13 mph 1012.3mb 47f 47f
10:00 0.3ft 7s 7 9 mph 1012.3mb 47f 47f
9:00  -  7s 4 7 mph 1012mb 47f 47f
8:00  -  7s 2 4 mph 1012.2mb 47f 47f
7:00  -  7s 2
mph
1012.4mb 47f 47f
6:00  -  7s 2
mph
1012.7mb 47f 47f
5:00  -  6s 4
mph
1013.4mb 47f 47f
4:00  -  6s 4 7 mph 1014.1mb 47f 47f
3:00 0.3ft 6s 4
mph
1014.8mb 47f 47f
2:00 0.3ft 7s 4
mph
1015.4mb 47f 48f
1:00 0.3ft 7s 2 4 mph 1015.8mb 47f 47f
12:00 0.3ft 3s 4
mph
1016.1mb 47f 47f
dom 01/25 11:00 0.3ft 3s 4
mph
1016.4mb 47f 48f
10:00 0.3ft 3s 4 7 mph 1016.7mb 47f 48f
9:00 0.3ft 3s 4 7 mph 1017.3mb 47f 48f
8:00 0.7ft 3s 4
mph
1017.4mb 47f 49f
7:00 1ft 4s 4
mph
1018mb 47f 49f
6:00 1ft 4s 9 11 mph 1018.4mb 47f 50f
5:00 1.3ft 4s 11 13 mph 1018.7mb 47f 50f
4:00 1.3ft 4s 11 13 mph 1018.8mb 47f 50f
3:00 2ft 4s 9 11 mph 1019.2mb 47f 50f
2:00 2.5ft 4s 13
mph
1019.3mb 47f 51f
1:00 2.5ft 4s 18 20 mph 1019.6mb 47f 50f
12:00 3.5ft 5s 18 22 mph 1019.8mb 47f 51f
11:00 3.5ft 4s 22 25 mph 1019.7mb 47f 51f
10:00 3.5ft 4s 20 22 mph 1019.6mb 47f 50f
9:00 3.5ft 4s 22 25 mph 1019.1mb 47f 50f
8:00 3.5ft 4s 22 27 mph 1018.5mb 47f 51f
7:00 3.5ft 4s 22 27 mph 1018.5mb 47f 51f
6:00 3.5ft 4s 20 25 mph 1018.5mb 47f 51f
5:00 3ft 4s 18 22 mph 1019mb 47f 51f
4:00 3.5ft 5s 16 18 mph 1019.3mb 47f 51f
3:00 3.5ft 5s 18 20 mph 1019.2mb 47f 51f
2:00 3.5ft 4s 2 7 mph 1019.6mb 47f 50f
1:00 3.5ft 4s 18 22 mph 1018.5mb 47f 51f
12:00 3.5ft 4s 16 20 mph 1018.9mb 47f 50f
sáb 01/24 11:00 4ft 4s 22 29 mph 1018.6mb 47f 51f
10:00 3.5ft 5s 18 25 mph 1018.7mb 47f 50f
9:00 3.5ft 4s 20 22 mph 1018.4mb 47f 50f
8:00 3.5ft 5s 18 22 mph 1019.3mb 47f 50f
7:00 3.5ft 5s 22 29 mph 1018.9mb 47f 50f
6:00 3.5ft 5s 16 18 mph 1019.4mb 47f 49f
5:00 3.5ft 5s 13 16 mph 1020.2mb 47f 49f
4:00 4ft 5s 18 20 mph 1020.5mb 47f 50f
3:00 4ft 5s 18 25 mph 1020.3mb 47f 50f
2:00 3.5ft 4s 18 22 mph 1020.3mb 47f 50f
1:00 2ft 4s 11 16 mph 1021.4mb 46f 49f
12:00 0.7ft 2s 13 16 mph 1021.8mb 46f 49f
11:00 0.3ft 4s 11 16 mph 1022.4mb 46f 49f
10:00 0.3ft 3s 4 7 mph 1022.5mb 47f 48f
9:00 0.3ft 4s 9
mph
1022.3mb 46f 47f
8:00 0.3ft 6s 4
mph
1022.8mb 47f 47f
7:00 0.3ft 7s 2
mph
1023.3mb 47f 47f
6:00 0.3ft 4s  -  2 mph 1023.6mb 47f 47f
5:00 0.3ft 3s 2 4 mph 1024mb 47f 47f
4:00 0.3ft 3s 2
mph
1024.1mb 47f 47f
3:00 0.7ft 4s 4
mph
1024.8mb 47f 47f
2:00 0.7ft 4s 4
mph
1024.5mb 47f 47f
1:00 0.7ft 4s 4
mph
1024mb 47f 48f
12:00 1ft 4s 4
mph
1023.4mb 47f 48f
vie 01/23 11:00 1.6ft 4s 2 4 mph 1023mb 47f 49f
10:00 2ft 4s 7
mph
1021.9mb 47f 49f
9:00 3ft 5s 13 16 mph 1020.5mb 47f 49f
8:00 3.5ft 5s 9 11 mph 1019.7mb 47f 49f
7:00 3.5ft 4s 11 13 mph 1019.6mb 47f 50f
6:00 4ft 5s 18 25 mph 1018.3mb 47f 50f
5:00 4.5ft 5s 11 13 mph 1018.7mb 47f 49f
4:00 5ft 5s 25 29 mph 1017.7mb 47f 49f
3:00 5.5ft 5s 27 31 mph 1018.4mb 47f 50f
2:00 6ft 5s 29 36 mph 1018.1mb 47f 50f
1:00 6ft 6s 27 36 mph 1018.9mb 47f 49f
12:00 6ft 6s 29 36 mph 1019.8mb 47f 49f
11:00 5.5ft 5s 27 36 mph 1020.4mb 47f 49f
10:00 5ft 5s 29 36 mph 1020.5mb 47f 49f
9:00 4.5ft 5s 27 31 mph 1021mb 47f 49f
8:00 4.5ft 5s 27 34 mph 1021.1mb 46f 49f
7:00 3.5ft 5s 22 27 mph 1021.8mb 47f 48f
6:00 3.5ft 5s 20 22 mph 1023.3mb 47f 48f
5:00 2.5ft 5s 18 22 mph 1024.5mb 46f 47f
4:00 3ft 5s 16 18 mph 1026mb 46f 47f
3:00 3ft 5s 16 20 mph 1026.5mb 46f 47f
2:00 3.5ft 5s 11 13 mph 1025.9mb 46f 47f